sensor_id;sensor_type;location;lat;lon;timestamp;temperature;humidity
43997;DHT22;34318;45.818;15.964;2022-07-29T00:00:03;24.50;70.20
43997;DHT22;34318;45.818;15.964;2022-07-29T00:02:32;24.80;68.90
43997;DHT22;34318;45.818;15.964;2022-07-29T00:04:59;25.00;68.00
43997;DHT22;34318;45.818;15.964;2022-07-29T00:07:26;25.10;68.00
43997;DHT22;34318;45.818;15.964;2022-07-29T00:09:53;25.10;67.90
43997;DHT22;34318;45.818;15.964;2022-07-29T00:12:21;25.20;68.00
43997;DHT22;34318;45.818;15.964;2022-07-29T00:14:53;25.20;67.60
43997;DHT22;34318;45.818;15.964;2022-07-29T00:17:20;25.20;67.40
43997;DHT22;34318;45.818;15.964;2022-07-29T00:19:47;25.20;67.60
43997;DHT22;34318;45.818;15.964;2022-07-29T00:22:14;25.20;67.40
43997;DHT22;34318;45.818;15.964;2022-07-29T00:24:44;25.20;67.50
43997;DHT22;34318;45.818;15.964;2022-07-29T00:27:10;25.20;67.70
43997;DHT22;34318;45.818;15.964;2022-07-29T00:29:40;25.20;67.70
43997;DHT22;34318;45.818;15.964;2022-07-29T00:32:07;25.20;67.60
43997;DHT22;34318;45.818;15.964;2022-07-29T00:34:34;25.20;67.00
43997;DHT22;34318;45.818;15.964;2022-07-29T00:37:19;25.20;67.00
43997;DHT22;34318;45.818;15.964;2022-07-29T00:39:46;25.20;66.70
43997;DHT22;34318;45.818;15.964;2022-07-29T00:42:13;25.20;67.10
43997;DHT22;34318;45.818;15.964;2022-07-29T00:44:43;25.20;67.00
43997;DHT22;34318;45.818;15.964;2022-07-29T00:47:10;25.10;66.90
43997;DHT22;34318;45.818;15.964;2022-07-29T00:49:39;25.10;66.90
43997;DHT22;34318;45.818;15.964;2022-07-29T00:52:07;25.20;66.70
43997;DHT22;34318;45.818;15.964;2022-07-29T00:54:35;25.10;66.90
43997;DHT22;34318;45.818;15.964;2022-07-29T00:57:11;25.10;67.10
43997;DHT22;34318;45.818;15.964;2022-07-29T00:59:38;25.10;67.10
43997;DHT22;34318;45.818;15.964;2022-07-29T01:02:05;25.20;66.90
43997;DHT22;34318;45.818;15.964;2022-07-29T01:04:32;25.20;67.10
43997;DHT22;34318;45.818;15.964;2022-07-29T01:07:03;25.10;67.10
43997;DHT22;34318;45.818;15.964;2022-07-29T01:09:34;25.10;67.00
43997;DHT22;34318;45.818;15.964;2022-07-29T01:12:16;25.20;66.70
43997;DHT22;34318;45.818;15.964;2022-07-29T01:14:45;25.20;66.60
43997;DHT22;34318;45.818;15.964;2022-07-29T01:17:21;25.20;66.30
43997;DHT22;34318;45.818;15.964;2022-07-29T01:22:37;25.20;66.40
43997;DHT22;34318;45.818;15.964;2022-07-29T01:28:09;25.20;66.10
43997;DHT22;34318;45.818;15.964;2022-07-29T01:30:44;25.20;66.20
43997;DHT22;34318;45.818;15.964;2022-07-29T01:33:15;25.10;66.40
43997;DHT22;34318;45.818;15.964;2022-07-29T01:36:10;25.20;66.40
43997;DHT22;34318;45.818;15.964;2022-07-29T01:38:41;25.20;67.00
43997;DHT22;34318;45.818;15.964;2022-07-29T01:41:14;25.20;66.40
43997;DHT22;34318;45.818;15.964;2022-07-29T01:46:19;25.30;66.40
43997;DHT22;34318;45.818;15.964;2022-07-29T01:48:55;25.20;66.40
43997;DHT22;34318;45.818;15.964;2022-07-29T01:51:33;25.20;66.50
43997;DHT22;34318;45.818;15.964;2022-07-29T01:54:12;25.20;66.70
43997;DHT22;34318;45.818;15.964;2022-07-29T01:56:42;25.20;66.80
43997;DHT22;34318;45.818;15.964;2022-07-29T01:59:10;25.00;66.50
43997;DHT22;34318;45.818;15.964;2022-07-29T02:01:39;25.00;66.60
43997;DHT22;34318;45.818;15.964;2022-07-29T02:04:10;25.10;66.60
43997;DHT22;34318;45.818;15.964;2022-07-29T02:06:58;25.00;66.60
43997;DHT22;34318;45.818;15.964;2022-07-29T02:09:28;25.00;66.60
43997;DHT22;34318;45.818;15.964;2022-07-29T02:11:57;25.00;66.80
43997;DHT22;34318;45.818;15.964;2022-07-29T02:14:26;25.00;66.90
43997;DHT22;34318;45.818;15.964;2022-07-29T02:16:56;25.00;66.80
43997;DHT22;34318;45.818;15.964;2022-07-29T02:19:26;25.00;66.90
43997;DHT22;34318;45.818;15.964;2022-07-29T02:21:54;25.00;67.00
43997;DHT22;34318;45.818;15.964;2022-07-29T02:24:23;25.00;67.20
43997;DHT22;34318;45.818;15.964;2022-07-29T02:26:53;24.90;67.20
43997;DHT22;34318;45.818;15.964;2022-07-29T02:29:23;25.00;67.00
43997;DHT22;34318;45.818;15.964;2022-07-29T02:31:51;25.00;67.10
43997;DHT22;34318;45.818;15.964;2022-07-29T02:34:20;24.90;67.10
43997;DHT22;34318;45.818;15.964;2022-07-29T02:36:48;24.90;67.30
43997;DHT22;34318;45.818;15.964;2022-07-29T02:39:17;24.90;67.30
43997;DHT22;34318;45.818;15.964;2022-07-29T02:41:54;24.90;67.10
43997;DHT22;34318;45.818;15.964;2022-07-29T02:44:24;24.90;67.00
43997;DHT22;34318;45.818;15.964;2022-07-29T02:47:02;24.90;67.00
43997;DHT22;34318;45.818;15.964;2022-07-29T02:55:18;25.00;66.80
43997;DHT22;34318;45.818;15.964;2022-07-29T02:58:03;25.00;66.70
43997;DHT22;34318;45.818;15.964;2022-07-29T03:00:37;24.90;66.80
43997;DHT22;34318;45.818;15.964;2022-07-29T03:03:08;24.90;67.10
43997;DHT22;34318;45.818;15.964;2022-07-29T03:05:37;25.00;66.90
43997;DHT22;34318;45.818;15.964;2022-07-29T03:08:05;25.00;66.70
43997;DHT22;34318;45.818;15.964;2022-07-29T03:10:34;24.90;66.60
43997;DHT22;34318;45.818;15.964;2022-07-29T03:13:01;24.90;67.40
43997;DHT22;34318;45.818;15.964;2022-07-29T03:15:28;24.90;66.80
43997;DHT22;34318;45.818;15.964;2022-07-29T03:17:56;24.90;66.50
43997;DHT22;34318;45.818;15.964;2022-07-29T03:20:23;24.80;66.60
43997;DHT22;34318;45.818;15.964;2022-07-29T03:22:51;24.80;66.70
43997;DHT22;34318;45.818;15.964;2022-07-29T03:25:19;24.80;66.70
43997;DHT22;34318;45.818;15.964;2022-07-29T03:27:47;24.80;66.70
43997;DHT22;34318;45.818;15.964;2022-07-29T03:30:15;24.70;66.60
43997;DHT22;34318;45.818;15.964;2022-07-29T03:32:47;24.70;66.80
43997;DHT22;34318;45.818;15.964;2022-07-29T03:35:18;24.70;66.80
43997;DHT22;34318;45.818;15.964;2022-07-29T03:37:47;24.70;66.70
43997;DHT22;34318;45.818;15.964;2022-07-29T03:40:18;24.70;66.90
43997;DHT22;34318;45.818;15.964;2022-07-29T03:42:46;24.70;66.60
43997;DHT22;34318;45.818;15.964;2022-07-29T03:45:18;24.70;66.70
43997;DHT22;34318;45.818;15.964;2022-07-29T03:47:53;24.70;66.90
43997;DHT22;34318;45.818;15.964;2022-07-29T03:50:28;24.70;66.70
43997;DHT22;34318;45.818;15.964;2022-07-29T03:52:57;24.70;66.70
43997;DHT22;34318;45.818;15.964;2022-07-29T03:55:25;24.70;66.90
43997;DHT22;34318;45.818;15.964;2022-07-29T03:57:53;24.70;66.60
43997;DHT22;34318;45.818;15.964;2022-07-29T04:00:24;24.60;66.70
43997;DHT22;34318;45.818;15.964;2022-07-29T04:02:52;24.60;66.90
43997;DHT22;34318;45.818;15.964;2022-07-29T04:05:19;24.60;67.00
43997;DHT22;34318;45.818;15.964;2022-07-29T04:07:48;24.60;66.90
43997;DHT22;34318;45.818;15.964;2022-07-29T04:10:15;24.60;66.80
43997;DHT22;34318;45.818;15.964;2022-07-29T04:12:56;24.60;66.80
43997;DHT22;34318;45.818;15.964;2022-07-29T04:15:22;24.60;66.80
43997;DHT22;34318;45.818;15.964;2022-07-29T04:17:49;24.60;67.40
43997;DHT22;34318;45.818;15.964;2022-07-29T04:20:16;24.60;66.60
43997;DHT22;34318;45.818;15.964;2022-07-29T04:22:43;24.60;66.70
43997;DHT22;34318;45.818;15.964;2022-07-29T04:25:10;24.60;66.70
43997;DHT22;34318;45.818;15.964;2022-07-29T04:27:37;24.50;66.70
43997;DHT22;34318;45.818;15.964;2022-07-29T04:30:24;24.60;66.70
43997;DHT22;34318;45.818;15.964;2022-07-29T04:32:51;24.60;66.60
43997;DHT22;34318;45.818;15.964;2022-07-29T04:35:19;24.60;66.50
43997;DHT22;34318;45.818;15.964;2022-07-29T04:37:46;24.70;66.50
43997;DHT22;34318;45.818;15.964;2022-07-29T04:40:14;24.70;65.90
43997;DHT22;34318;45.818;15.964;2022-07-29T04:42:41;24.70;66.00
43997;DHT22;34318;45.818;15.964;2022-07-29T04:45:12;24.60;66.30
43997;DHT22;34318;45.818;15.964;2022-07-29T04:47:39;24.60;66.40
43997;DHT22;34318;45.818;15.964;2022-07-29T04:50:08;24.60;66.50
43997;DHT22;34318;45.818;15.964;2022-07-29T04:52:35;24.60;66.50
43997;DHT22;34318;45.818;15.964;2022-07-29T04:55:04;24.70;66.30
43997;DHT22;34318;45.818;15.964;2022-07-29T04:57:31;24.70;66.40
43997;DHT22;34318;45.818;15.964;2022-07-29T04:59:58;24.80;66.20
43997;DHT22;34318;45.818;15.964;2022-07-29T05:02:24;24.80;65.80
43997;DHT22;34318;45.818;15.964;2022-07-29T05:04:51;24.70;66.30
43997;DHT22;34318;45.818;15.964;2022-07-29T05:07:18;24.70;66.40
43997;DHT22;34318;45.818;15.964;2022-07-29T05:09:45;24.70;66.70
43997;DHT22;34318;45.818;15.964;2022-07-29T05:12:12;24.70;66.60
43997;DHT22;34318;45.818;15.964;2022-07-29T05:14:39;24.70;66.60
43997;DHT22;34318;45.818;15.964;2022-07-29T05:17:05;24.80;66.70
43997;DHT22;34318;45.818;15.964;2022-07-29T05:19:33;24.80;66.60
43997;DHT22;34318;45.818;15.964;2022-07-29T05:22:05;24.80;66.60
43997;DHT22;34318;45.818;15.964;2022-07-29T05:24:32;24.80;67.10
43997;DHT22;34318;45.818;15.964;2022-07-29T05:26:58;24.90;67.10
43997;DHT22;34318;45.818;15.964;2022-07-29T05:29:25;24.90;66.90
43997;DHT22;34318;45.818;15.964;2022-07-29T05:32:10;24.90;66.90
43997;DHT22;34318;45.818;15.964;2022-07-29T05:34:37;24.90;67.30
43997;DHT22;34318;45.818;15.964;2022-07-29T05:37:19;25.00;67.30
43997;DHT22;34318;45.818;15.964;2022-07-29T05:39:46;25.00;67.30
43997;DHT22;34318;45.818;15.964;2022-07-29T05:42:22;25.00;67.70
43997;DHT22;34318;45.818;15.964;2022-07-29T05:44:49;25.00;67.70
43997;DHT22;34318;45.818;15.964;2022-07-29T05:47:15;25.00;67.90
43997;DHT22;34318;45.818;15.964;2022-07-29T05:49:42;25.00;68.20
43997;DHT22;34318;45.818;15.964;2022-07-29T05:52:09;25.10;68.40
43997;DHT22;34318;45.818;15.964;2022-07-29T05:54:36;25.10;68.40
43997;DHT22;34318;45.818;15.964;2022-07-29T05:57:03;25.20;68.70
43997;DHT22;34318;45.818;15.964;2022-07-29T05:59:30;25.20;68.90
43997;DHT22;34318;45.818;15.964;2022-07-29T06:01:57;25.20;68.90
43997;DHT22;34318;45.818;15.964;2022-07-29T06:04:24;25.40;68.20
43997;DHT22;34318;45.818;15.964;2022-07-29T06:06:51;25.30;68.30
43997;DHT22;34318;45.818;15.964;2022-07-29T06:09:18;25.40;68.60
43997;DHT22;34318;45.818;15.964;2022-07-29T06:11:45;25.40;68.20
43997;DHT22;34318;45.818;15.964;2022-07-29T06:14:12;25.50;67.50
43997;DHT22;34318;45.818;15.964;2022-07-29T06:16:39;25.60;67.20
43997;DHT22;34318;45.818;15.964;2022-07-29T06:19:06;25.80;66.40
43997;DHT22;34318;45.818;15.964;2022-07-29T06:21:35;26.00;65.80
43997;DHT22;34318;45.818;15.964;2022-07-29T06:24:07;26.10;65.40
43997;DHT22;34318;45.818;15.964;2022-07-29T06:26:34;26.20;65.50
43997;DHT22;34318;45.818;15.964;2022-07-29T06:29:06;26.30;65.40
43997;DHT22;34318;45.818;15.964;2022-07-29T06:31:33;26.30;65.40
43997;DHT22;34318;45.818;15.964;2022-07-29T06:34:00;26.40;65.70
43997;DHT22;34318;45.818;15.964;2022-07-29T06:36:29;26.50;65.40
43997;DHT22;34318;45.818;15.964;2022-07-29T06:38:55;26.50;65.50
43997;DHT22;34318;45.818;15.964;2022-07-29T06:41:22;26.50;65.60
43997;DHT22;34318;45.818;15.964;2022-07-29T06:43:50;26.50;65.50
43997;DHT22;34318;45.818;15.964;2022-07-29T06:46:21;26.60;65.50
43997;DHT22;34318;45.818;15.964;2022-07-29T06:48:51;26.70;65.50
43997;DHT22;34318;45.818;15.964;2022-07-29T06:51:19;26.70;65.40
43997;DHT22;34318;45.818;15.964;2022-07-29T06:53:52;26.70;65.40
43997;DHT22;34318;45.818;15.964;2022-07-29T06:56:32;26.70;65.20
43997;DHT22;34318;45.818;15.964;2022-07-29T06:59:09;26.80;65.00
43997;DHT22;34318;45.818;15.964;2022-07-29T07:01:40;26.90;64.80
43997;DHT22;34318;45.818;15.964;2022-07-29T07:04:09;26.90;65.40
43997;DHT22;34318;45.818;15.964;2022-07-29T07:06:37;26.90;64.60
43997;DHT22;34318;45.818;15.964;2022-07-29T07:09:04;27.00;64.60
43997;DHT22;34318;45.818;15.964;2022-07-29T07:11:31;27.00;64.30
43997;DHT22;34318;45.818;15.964;2022-07-29T07:13:58;27.00;64.10
43997;DHT22;34318;45.818;15.964;2022-07-29T07:16:40;27.10;64.20
43997;DHT22;34318;45.818;15.964;2022-07-29T07:19:07;27.10;64.20
43997;DHT22;34318;45.818;15.964;2022-07-29T07:21:34;27.10;64.00
43997;DHT22;34318;45.818;15.964;2022-07-29T07:24:02;27.10;64.00
43997;DHT22;34318;45.818;15.964;2022-07-29T07:26:29;27.20;63.80
43997;DHT22;34318;45.818;15.964;2022-07-29T07:28:56;27.20;63.70
43997;DHT22;34318;45.818;15.964;2022-07-29T07:31:24;27.30;63.50
43997;DHT22;34318;45.818;15.964;2022-07-29T07:33:51;27.30;63.30
43997;DHT22;34318;45.818;15.964;2022-07-29T07:36:18;27.30;63.50
43997;DHT22;34318;45.818;15.964;2022-07-29T07:38:45;27.40;63.50
43997;DHT22;34318;45.818;15.964;2022-07-29T07:41:13;27.40;63.30
43997;DHT22;34318;45.818;15.964;2022-07-29T07:43:39;27.40;63.00
43997;DHT22;34318;45.818;15.964;2022-07-29T07:46:06;27.40;62.80
43997;DHT22;34318;45.818;15.964;2022-07-29T07:48:34;27.40;62.60
43997;DHT22;34318;45.818;15.964;2022-07-29T07:51:01;27.50;62.20
43997;DHT22;34318;45.818;15.964;2022-07-29T07:53:28;27.60;62.30
43997;DHT22;34318;45.818;15.964;2022-07-29T07:55:56;27.50;62.20
43997;DHT22;34318;45.818;15.964;2022-07-29T07:58:36;27.60;62.30
43997;DHT22;34318;45.818;15.964;2022-07-29T08:01:03;27.60;61.60
43997;DHT22;34318;45.818;15.964;2022-07-29T08:03:30;27.60;61.50
43997;DHT22;34318;45.818;15.964;2022-07-29T08:05:57;27.60;60.80
43997;DHT22;34318;45.818;15.964;2022-07-29T08:08:24;27.70;60.00
43997;DHT22;34318;45.818;15.964;2022-07-29T08:10:53;27.70;59.90
43997;DHT22;34318;45.818;15.964;2022-07-29T08:13:21;27.70;59.70
43997;DHT22;34318;45.818;15.964;2022-07-29T08:15:48;27.70;59.70
43997;DHT22;34318;45.818;15.964;2022-07-29T08:18:30;27.80;59.60
43997;DHT22;34318;45.818;15.964;2022-07-29T08:20:58;27.80;59.50
43997;DHT22;34318;45.818;15.964;2022-07-29T08:23:25;27.80;59.10
43997;DHT22;34318;45.818;15.964;2022-07-29T08:25:59;28.00;58.10
43997;DHT22;34318;45.818;15.964;2022-07-29T08:28:26;27.90;58.20
43997;DHT22;34318;45.818;15.964;2022-07-29T08:30:53;27.90;58.50
43997;DHT22;34318;45.818;15.964;2022-07-29T08:33:20;27.90;58.40
43997;DHT22;34318;45.818;15.964;2022-07-29T08:35:47;28.00;57.80
43997;DHT22;34318;45.818;15.964;2022-07-29T08:38:14;28.00;58.20
43997;DHT22;34318;45.818;15.964;2022-07-29T08:40:41;27.90;59.30
43997;DHT22;34318;45.818;15.964;2022-07-29T08:43:09;28.00;58.20
43997;DHT22;34318;45.818;15.964;2022-07-29T08:45:47;28.00;57.80
43997;DHT22;34318;45.818;15.964;2022-07-29T08:48:16;28.00;58.10
43997;DHT22;34318;45.818;15.964;2022-07-29T08:50:44;27.90;58.20
43997;DHT22;34318;45.818;15.964;2022-07-29T08:53:15;28.10;57.90
43997;DHT22;34318;45.818;15.964;2022-07-29T08:55:43;28.10;56.80
43997;DHT22;34318;45.818;15.964;2022-07-29T08:58:11;28.20;56.50
43997;DHT22;34318;45.818;15.964;2022-07-29T09:00:43;28.20;56.90
43997;DHT22;34318;45.818;15.964;2022-07-29T09:03:15;28.10;57.50
43997;DHT22;34318;45.818;15.964;2022-07-29T09:05:47;28.10;57.10
43997;DHT22;34318;45.818;15.964;2022-07-29T09:08:15;28.20;57.10
43997;DHT22;34318;45.818;15.964;2022-07-29T09:10:44;28.10;56.90
43997;DHT22;34318;45.818;15.964;2022-07-29T09:13:11;28.20;56.30
43997;DHT22;34318;45.818;15.964;2022-07-29T09:15:37;28.20;54.90
43997;DHT22;34318;45.818;15.964;2022-07-29T09:18:04;28.20;54.90
43997;DHT22;34318;45.818;15.964;2022-07-29T09:20:32;28.20;55.70
43997;DHT22;34318;45.818;15.964;2022-07-29T09:23:17;28.20;55.00
43997;DHT22;34318;45.818;15.964;2022-07-29T09:25:50;28.30;55.40
43997;DHT22;34318;45.818;15.964;2022-07-29T09:28:17;28.20;56.10
43997;DHT22;34318;45.818;15.964;2022-07-29T09:30:53;28.20;55.80
43997;DHT22;34318;45.818;15.964;2022-07-29T09:33:25;28.10;55.40
43997;DHT22;34318;45.818;15.964;2022-07-29T09:36:05;28.20;55.20
43997;DHT22;34318;45.818;15.964;2022-07-29T09:38:33;28.10;55.70
43997;DHT22;34318;45.818;15.964;2022-07-29T09:41:04;28.00;55.80
43997;DHT22;34318;45.818;15.964;2022-07-29T09:43:33;28.00;56.40
43997;DHT22;34318;45.818;15.964;2022-07-29T09:46:18;28.00;56.70
43997;DHT22;34318;45.818;15.964;2022-07-29T09:49:09;28.00;56.30
43997;DHT22;34318;45.818;15.964;2022-07-29T09:51:36;28.00;56.00
43997;DHT22;34318;45.818;15.964;2022-07-29T09:54:22;28.10;56.30
43997;DHT22;34318;45.818;15.964;2022-07-29T09:56:50;28.00;56.20
43997;DHT22;34318;45.818;15.964;2022-07-29T09:59:17;28.00;56.20
43997;DHT22;34318;45.818;15.964;2022-07-29T10:01:43;28.00;55.70
43997;DHT22;34318;45.818;15.964;2022-07-29T10:04:10;28.10;56.50
43997;DHT22;34318;45.818;15.964;2022-07-29T10:07:01;28.00;56.70
43997;DHT22;34318;45.818;15.964;2022-07-29T10:09:32;28.10;55.90
43997;DHT22;34318;45.818;15.964;2022-07-29T10:12:12;28.10;56.20
43997;DHT22;34318;45.818;15.964;2022-07-29T10:14:42;28.10;55.90
43997;DHT22;34318;45.818;15.964;2022-07-29T10:17:10;28.10;55.70
43997;DHT22;34318;45.818;15.964;2022-07-29T10:19:38;28.10;55.70
43997;DHT22;34318;45.818;15.964;2022-07-29T10:22:08;28.10;56.60
43997;DHT22;34318;45.818;15.964;2022-07-29T10:24:37;28.00;56.10
43997;DHT22;34318;45.818;15.964;2022-07-29T10:27:07;28.10;55.60
43997;DHT22;34318;45.818;15.964;2022-07-29T10:29:34;28.10;55.50
43997;DHT22;34318;45.818;15.964;2022-07-29T10:32:35;28.20;55.00
43997;DHT22;34318;45.818;15.964;2022-07-29T10:35:31;28.20;55.60
43997;DHT22;34318;45.818;15.964;2022-07-29T10:41:43;28.10;56.10
43997;DHT22;34318;45.818;15.964;2022-07-29T10:44:23;28.10;55.40
43997;DHT22;34318;45.818;15.964;2022-07-29T10:46:52;28.20;55.00
43997;DHT22;34318;45.818;15.964;2022-07-29T10:54:19;28.20;53.40
43997;DHT22;34318;45.818;15.964;2022-07-29T10:57:22;28.10;54.50
43997;DHT22;34318;45.818;15.964;2022-07-29T11:02:43;28.10;54.20
43997;DHT22;34318;45.818;15.964;2022-07-29T11:05:13;28.10;54.60
43997;DHT22;34318;45.818;15.964;2022-07-29T11:10:47;28.10;54.00
43997;DHT22;34318;45.818;15.964;2022-07-29T11:16:13;28.10;54.50
43997;DHT22;34318;45.818;15.964;2022-07-29T11:21:40;28.00;54.80
43997;DHT22;34318;45.818;15.964;2022-07-29T11:24:23;28.10;54.40
43997;DHT22;34318;45.818;15.964;2022-07-29T11:27:14;28.00;54.70
43997;DHT22;34318;45.818;15.964;2022-07-29T11:30:02;28.00;55.10
43997;DHT22;34318;45.818;15.964;2022-07-29T11:32:42;28.00;55.30
43997;DHT22;34318;45.818;15.964;2022-07-29T11:35:21;28.00;55.00
43997;DHT22;34318;45.818;15.964;2022-07-29T11:43:55;27.90;54.60
43997;DHT22;34318;45.818;15.964;2022-07-29T11:46:44;28.00;53.50
43997;DHT22;34318;45.818;15.964;2022-07-29T11:49:23;28.00;54.80
43997;DHT22;34318;45.818;15.964;2022-07-29T11:51:59;28.00;54.80
43997;DHT22;34318;45.818;15.964;2022-07-29T11:54:33;27.90;54.90
43997;DHT22;34318;45.818;15.964;2022-07-29T11:57:22;27.90;54.60
43997;DHT22;34318;45.818;15.964;2022-07-29T12:00:05;28.00;54.50
43997;DHT22;34318;45.818;15.964;2022-07-29T12:02:42;28.00;54.10
43997;DHT22;34318;45.818;15.964;2022-07-29T12:05:36;28.00;54.50
43997;DHT22;34318;45.818;15.964;2022-07-29T12:08:08;28.00;54.50
43997;DHT22;34318;45.818;15.964;2022-07-29T12:10:41;28.00;54.80
43997;DHT22;34318;45.818;15.964;2022-07-29T12:13:09;27.90;54.80
43997;DHT22;34318;45.818;15.964;2022-07-29T12:15:38;27.90;55.00
43997;DHT22;34318;45.818;15.964;2022-07-29T12:18:18;27.90;55.00
43997;DHT22;34318;45.818;15.964;2022-07-29T12:20:57;27.90;54.80
43997;DHT22;34318;45.818;15.964;2022-07-29T12:23:32;27.90;54.00
43997;DHT22;34318;45.818;15.964;2022-07-29T12:26:04;28.00;54.30
43997;DHT22;34318;45.818;15.964;2022-07-29T12:28:39;28.00;54.30
43997;DHT22;34318;45.818;15.964;2022-07-29T12:31:08;28.00;54.30
43997;DHT22;34318;45.818;15.964;2022-07-29T12:33:39;28.10;53.40
43997;DHT22;34318;45.818;15.964;2022-07-29T12:36:06;28.00;53.50
43997;DHT22;34318;45.818;15.964;2022-07-29T12:38:43;28.10;53.80
43997;DHT22;34318;45.818;15.964;2022-07-29T12:41:10;28.00;54.10
43997;DHT22;34318;45.818;15.964;2022-07-29T12:43:52;28.10;54.40
43997;DHT22;34318;45.818;15.964;2022-07-29T12:46:19;28.00;54.20
43997;DHT22;34318;45.818;15.964;2022-07-29T12:48:51;28.00;54.10
43997;DHT22;34318;45.818;15.964;2022-07-29T12:51:35;28.10;55.50
43997;DHT22;34318;45.818;15.964;2022-07-29T12:54:13;28.10;55.30
43997;DHT22;34318;45.818;15.964;2022-07-29T12:56:42;28.20;55.10
43997;DHT22;34318;45.818;15.964;2022-07-29T12:59:15;28.10;54.90
43997;DHT22;34318;45.818;15.964;2022-07-29T13:01:42;28.10;54.90
43997;DHT22;34318;45.818;15.964;2022-07-29T13:04:09;28.10;55.30
43997;DHT22;34318;45.818;15.964;2022-07-29T13:06:39;28.00;55.50
43997;DHT22;34318;45.818;15.964;2022-07-29T13:09:08;28.00;55.70
43997;DHT22;34318;45.818;15.964;2022-07-29T13:14:05;28.00;56.30
43997;DHT22;34318;45.818;15.964;2022-07-29T13:16:33;27.90;56.40
43997;DHT22;34318;45.818;15.964;2022-07-29T13:19:05;27.90;56.50
43997;DHT22;34318;45.818;15.964;2022-07-29T13:21:33;27.90;56.70
43997;DHT22;34318;45.818;15.964;2022-07-29T13:24:00;28.00;56.50
43997;DHT22;34318;45.818;15.964;2022-07-29T13:26:26;28.00;56.70
43997;DHT22;34318;45.818;15.964;2022-07-29T13:28:55;28.00;56.80
43997;DHT22;34318;45.818;15.964;2022-07-29T13:31:22;28.00;56.80
43997;DHT22;34318;45.818;15.964;2022-07-29T13:33:49;28.00;57.10
43997;DHT22;34318;45.818;15.964;2022-07-29T13:36:18;28.00;57.30
43997;DHT22;34318;45.818;15.964;2022-07-29T13:38:45;28.00;56.80
43997;DHT22;34318;45.818;15.964;2022-07-29T13:41:13;28.00;57.10
43997;DHT22;34318;45.818;15.964;2022-07-29T13:43:40;28.10;57.70
43997;DHT22;34318;45.818;15.964;2022-07-29T13:46:07;28.10;57.90
43997;DHT22;34318;45.818;15.964;2022-07-29T13:48:34;28.10;58.50
43997;DHT22;34318;45.818;15.964;2022-07-29T13:51:01;28.10;59.00
43997;DHT22;34318;45.818;15.964;2022-07-29T13:53:28;28.20;58.80
43997;DHT22;34318;45.818;15.964;2022-07-29T13:55:55;28.20;59.00
43997;DHT22;34318;45.818;15.964;2022-07-29T13:58:22;28.20;60.00
43997;DHT22;34318;45.818;15.964;2022-07-29T14:00:49;28.20;62.20
43997;DHT22;34318;45.818;15.964;2022-07-29T14:03:16;28.30;62.90
43997;DHT22;34318;45.818;15.964;2022-07-29T14:05:43;28.30;64.30
43997;DHT22;34318;45.818;15.964;2022-07-29T14:08:10;28.30;65.40
43997;DHT22;34318;45.818;15.964;2022-07-29T14:10:37;28.30;64.80
43997;DHT22;34318;45.818;15.964;2022-07-29T14:13:04;28.20;67.00
43997;DHT22;34318;45.818;15.964;2022-07-29T14:15:50;28.20;65.60
43997;DHT22;34318;45.818;15.964;2022-07-29T14:18:17;28.20;65.50
43997;DHT22;34318;45.818;15.964;2022-07-29T14:20:44;28.20;64.60
43997;DHT22;34318;45.818;15.964;2022-07-29T14:23:11;28.20;64.80
43997;DHT22;34318;45.818;15.964;2022-07-29T14:25:39;28.20;64.50
43997;DHT22;34318;45.818;15.964;2022-07-29T14:28:08;28.10;64.00
43997;DHT22;34318;45.818;15.964;2022-07-29T14:30:37;28.20;63.10
43997;DHT22;34318;45.818;15.964;2022-07-29T14:33:04;28.20;62.90
43997;DHT22;34318;45.818;15.964;2022-07-29T14:35:31;28.20;63.00
43997;DHT22;34318;45.818;15.964;2022-07-29T14:37:58;28.20;63.10
43997;DHT22;34318;45.818;15.964;2022-07-29T14:40:25;28.10;63.10
43997;DHT22;34318;45.818;15.964;2022-07-29T14:42:54;28.10;62.80
43997;DHT22;34318;45.818;15.964;2022-07-29T14:45:21;28.10;62.80
43997;DHT22;34318;45.818;15.964;2022-07-29T14:47:49;28.10;63.10
43997;DHT22;34318;45.818;15.964;2022-07-29T14:50:25;28.20;62.90
43997;DHT22;34318;45.818;15.964;2022-07-29T14:52:58;28.20;64.10
43997;DHT22;34318;45.818;15.964;2022-07-29T14:55:25;28.20;63.30
43997;DHT22;34318;45.818;15.964;2022-07-29T14:57:52;28.20;62.80
43997;DHT22;34318;45.818;15.964;2022-07-29T15:00:33;28.20;63.10
43997;DHT22;34318;45.818;15.964;2022-07-29T15:03:03;28.10;62.70
43997;DHT22;34318;45.818;15.964;2022-07-29T15:05:31;28.10;62.00
43997;DHT22;34318;45.818;15.964;2022-07-29T15:07:59;28.10;61.90
43997;DHT22;34318;45.818;15.964;2022-07-29T15:10:26;28.20;62.50
43997;DHT22;34318;45.818;15.964;2022-07-29T15:12:54;28.20;61.80
43997;DHT22;34318;45.818;15.964;2022-07-29T15:15:21;28.20;61.90
43997;DHT22;34318;45.818;15.964;2022-07-29T15:17:48;28.20;63.00
43997;DHT22;34318;45.818;15.964;2022-07-29T15:20:15;28.20;61.00
43997;DHT22;34318;45.818;15.964;2022-07-29T15:22:42;28.30;60.90
43997;DHT22;34318;45.818;15.964;2022-07-29T15:25:09;28.30;61.90
43997;DHT22;34318;45.818;15.964;2022-07-29T15:27:36;28.30;58.20
43997;DHT22;34318;45.818;15.964;2022-07-29T15:30:03;28.40;59.80
43997;DHT22;34318;45.818;15.964;2022-07-29T15:32:30;28.40;57.70
43997;DHT22;34318;45.818;15.964;2022-07-29T15:34:57;28.40;57.00
43997;DHT22;34318;45.818;15.964;2022-07-29T15:37:24;28.40;57.60
43997;DHT22;34318;45.818;15.964;2022-07-29T15:39:51;28.40;56.90
43997;DHT22;34318;45.818;15.964;2022-07-29T15:42:23;28.40;56.80
43997;DHT22;34318;45.818;15.964;2022-07-29T15:44:50;28.40;55.60
43997;DHT22;34318;45.818;15.964;2022-07-29T15:47:17;28.40;56.20
43997;DHT22;34318;45.818;15.964;2022-07-29T15:49:44;28.40;54.90
43997;DHT22;34318;45.818;15.964;2022-07-29T15:52:16;28.30;55.40
43997;DHT22;34318;45.818;15.964;2022-07-29T15:54:53;28.40;53.70
43997;DHT22;34318;45.818;15.964;2022-07-29T15:57:20;28.40;54.40
43997;DHT22;34318;45.818;15.964;2022-07-29T15:59:47;28.40;54.40
43997;DHT22;34318;45.818;15.964;2022-07-29T16:02:13;28.30;54.80
43997;DHT22;34318;45.818;15.964;2022-07-29T16:04:41;28.30;55.20
43997;DHT22;34318;45.818;15.964;2022-07-29T16:07:07;28.30;55.40
43997;DHT22;34318;45.818;15.964;2022-07-29T16:09:34;28.30;55.60
43997;DHT22;34318;45.818;15.964;2022-07-29T16:12:01;28.30;55.80
43997;DHT22;34318;45.818;15.964;2022-07-29T16:14:35;28.30;56.30
43997;DHT22;34318;45.818;15.964;2022-07-29T16:17:03;28.30;56.60